createdAt,value
2022-09-01T00:00:34.261Z,80.24
2022-09-01T00:01:34.131Z,80.13
2022-09-01T00:02:34.247Z,80.24
2022-09-01T00:03:34.101Z,80.44
2022-09-01T00:04:34.223Z,80.58
2022-09-01T00:05:34.083Z,80.68
2022-09-01T00:06:34.065Z,80.78
2022-09-01T00:07:34.059Z,80.98
2022-09-01T00:08:34.032Z,81.09
2022-09-01T00:09:34.055Z,81.09
2022-09-01T00:10:34.005Z,81.19
2022-09-01T00:11:33.996Z,81.29
2022-09-01T00:12:33.974Z,81.39
2022-09-01T00:13:34.033Z,81.59
2022-09-01T00:14:41.017Z,81.59
2022-09-01T00:15:36.998Z,81.79
2022-09-01T00:16:33.925Z,81.79
2022-09-01T00:17:33.922Z,81.90
2022-09-01T00:18:33.896Z,82.00
2022-09-01T00:19:34.067Z,82.10
2022-09-01T00:20:33.868Z,82.20
2022-09-01T00:21:33.857Z,82.40
2022-09-01T00:22:33.875Z,82.51
2022-09-01T00:23:33.837Z,82.61
2022-09-01T00:24:33.818Z,82.92
2022-09-01T00:25:33.831Z,82.81
2022-09-01T00:26:33.793Z,82.81
2022-09-01T00:27:33.783Z,83.12
2022-09-01T00:28:33.868Z,83.22
2022-09-01T00:29:33.751Z,83.32
2022-09-01T00:30:33.738Z,83.26
2022-09-01T00:31:33.813Z,83.36
2022-09-01T00:32:33.731Z,83.67
2022-09-01T00:33:33.699Z,83.76
2022-09-01T00:34:36.745Z,83.87
2022-09-01T00:35:37.230Z,83.97
2022-09-01T00:36:33.652Z,84.07
2022-09-01T00:37:33.645Z,84.17
2022-09-01T00:38:33.625Z,84.28
2022-09-01T00:39:33.616Z,84.68
2022-09-01T00:40:33.733Z,84.58
2022-09-01T00:41:33.596Z,84.68
2022-09-01T00:42:33.585Z,84.68
2022-09-01T00:43:33.569Z,84.68
2022-09-01T00:44:33.562Z,84.88
2022-09-01T00:45:33.545Z,84.99
2022-09-01T00:46:33.687Z,84.99
2022-09-01T00:47:33.517Z,84.88
2022-09-01T00:48:33.524Z,84.88
2022-09-01T00:49:35.372Z,84.88
2022-09-01T00:50:33.467Z,84.99
2022-09-01T00:51:33.509Z,85.19
2022-09-01T00:52:33.449Z,85.29
2022-09-01T00:53:33.429Z,85.39
2022-09-01T00:54:36.418Z,85.64
2022-09-01T00:55:36.419Z,85.64
2022-09-01T00:56:33.390Z,85.64
2022-09-01T00:57:33.410Z,85.94
2022-09-01T00:58:33.366Z,86.04
2022-09-01T00:59:33.382Z,86.25
2022-09-01T01:00:33.350Z,86.25
2022-09-01T01:01:33.363Z,86.35
2022-09-01T01:02:33.410Z,86.65
2022-09-01T01:03:33.299Z,86.55
2022-09-01T01:04:33.283Z,86.76
2022-09-01T01:05:33.349Z,86.76
2022-09-01T01:06:33.248Z,86.86
2022-09-01T01:07:33.283Z,86.86
2022-09-01T01:08:33.221Z,86.96
2022-09-01T01:09:33.216Z,86.96
2022-09-01T01:10:33.194Z,86.96
2022-09-01T01:11:33.187Z,87.16
2022-09-01T01:12:33.216Z,87.06
2022-09-01T01:13:33.157Z,87.16
2022-09-01T01:14:36.144Z,86.96
2022-09-01T01:15:36.148Z,86.96
2022-09-01T01:16:33.158Z,86.86
2022-09-01T01:17:33.099Z,87.06
2022-09-01T01:18:33.119Z,87.16
2022-09-01T01:19:37.014Z,87.16
2022-09-01T01:20:34.058Z,87.26
2022-09-01T01:21:33.098Z,87.37
2022-09-01T01:22:33.039Z,87.47
2022-09-01T01:23:33.020Z,87.51
2022-09-01T01:24:33.097Z,87.61
2022-09-01T01:25:33.039Z,87.61
2022-09-01T01:26:32.979Z,87.81
2022-09-01T01:27:33.045Z,87.92
2022-09-01T01:28:33.955Z,87.92
2022-09-01T01:29:32.931Z,87.92
2022-09-01T01:30:32.978Z,88.22
2022-09-01T01:31:32.935Z,88.12
2022-09-01T01:32:32.893Z,88.12
2022-09-01T01:33:32.903Z,88.12
2022-09-01T01:34:35.865Z,88.22
2022-09-01T01:35:35.913Z,88.22
2022-09-01T01:36:32.915Z,88.32
2022-09-01T01:37:32.833Z,88.42
2022-09-01T01:38:32.824Z,88.42
2022-09-01T01:39:32.810Z,88.32
2022-09-01T01:40:32.853Z,88.42
2022-09-01T01:41:32.786Z,88.53
2022-09-01T01:42:32.796Z,88.53
2022-09-01T01:43:32.757Z,88.63
2022-09-01T01:44:32.737Z,88.53
2022-09-01T01:45:32.727Z,88.63
2022-09-01T01:46:32.825Z,88.63
2022-09-01T01:47:32.708Z,88.63
2022-09-01T01:48:32.696Z,88.73
2022-09-01T01:49:32.725Z,88.73
2022-09-01T01:50:32.660Z,88.73
2022-09-01T01:51:32.671Z,88.73
2022-09-01T01:52:32.645Z,88.57
2022-09-01T01:53:32.649Z,88.87
2022-09-01T01:54:35.662Z,89.07
2022-09-01T01:55:35.592Z,89.24
2022-09-01T01:56:32.572Z,89.28
2022-09-01T01:57:32.663Z,89.28
2022-09-01T01:58:32.572Z,89.28
2022-09-01T01:59:32.530Z,89.28
2022-09-01T02:00:32.544Z,89.28
2022-09-01T02:01:32.565Z,89.18
2022-09-01T02:02:32.549Z,89.18
2022-09-01T02:03:32.481Z,89.38
2022-09-01T02:04:32.493Z,89.48
2022-09-01T02:05:32.451Z,89.28
2022-09-01T02:06:32.503Z,89.38
2022-09-01T02:07:32.992Z,89.59
2022-09-01T02:08:32.419Z,89.79
2022-09-01T02:09:32.399Z,89.79
2022-09-01T02:10:32.384Z,89.79
2022-09-01T02:11:32.367Z,89.79
2022-09-01T02:12:32.391Z,89.99
2022-09-01T02:13:32.340Z,89.99
2022-09-01T02:14:35.362Z,90.09
2022-09-01T02:15:35.331Z,90.20
2022-09-01T02:16:32.371Z,90.09
2022-09-01T02:17:32.310Z,89.99
2022-09-01T02:18:32.279Z,89.89
2022-09-01T02:19:32.288Z,89.94
2022-09-01T02:20:32.247Z,90.03
2022-09-01T02:21:32.239Z,90.03
2022-09-01T02:22:32.252Z,90.34
2022-09-01T02:23:32.202Z,90.75
2022-09-01T02:24:32.194Z,90.75
2022-09-01T02:25:32.173Z,90.64
2022-09-01T02:26:32.231Z,90.95
2022-09-01T02:27:32.154Z,90.85
2022-09-01T02:28:32.145Z,90.95
2022-09-01T02:29:38.632Z,90.75
2022-09-01T02:30:33.135Z,90.55
2022-09-01T02:31:32.103Z,90.44
2022-09-01T02:32:32.146Z,90.55
2022-09-01T02:33:32.065Z,90.55
2022-09-01T02:34:35.055Z,90.75
2022-09-01T02:35:35.080Z,91.26
2022-09-01T02:36:33.543Z,91.46
2022-09-01T02:37:32.025Z,91.56
2022-09-01T02:38:32.030Z,91.66
2022-09-01T02:39:31.997Z,91.56
2022-09-01T02:40:32.057Z,91.56
2022-09-01T02:41:32.735Z,91.66
2022-09-01T02:42:31.968Z,91.77
2022-09-01T02:43:31.959Z,91.87
2022-09-01T02:44:31.925Z,91.77
2022-09-01T02:45:31.956Z,91.66
2022-09-01T02:46:32.671Z,91.77
2022-09-01T02:47:31.907Z,91.77
2022-09-01T02:48:31.870Z,91.77
2022-09-01T02:49:31.862Z,91.87
2022-09-01T02:50:31.841Z,91.97
2022-09-01T02:51:33.292Z,91.97
2022-09-01T02:52:31.993Z,92.07
2022-09-01T02:53:31.801Z,92.18
2022-09-01T02:54:34.792Z,92.18
2022-09-01T02:55:34.794Z,92.07
2022-09-01T02:56:33.224Z,92.07
2022-09-01T02:57:31.755Z,92.07
2022-09-01T02:58:31.776Z,91.97
2022-09-01T02:59:31.721Z,91.93
2022-09-01T03:00:31.716Z,91.97
2022-09-01T03:01:32.519Z,91.87
2022-09-01T03:02:31.696Z,91.83
2022-09-01T03:03:31.662Z,91.83
2022-09-01T03:04:31.701Z,91.83
2022-09-01T03:05:31.646Z,91.83
2022-09-01T03:06:32.397Z,91.83
2022-09-01T03:07:31.675Z,91.83
2022-09-01T03:08:31.598Z,91.83
2022-09-01T03:09:31.608Z,91.83
2022-09-01T03:10:31.588Z,91.72
2022-09-01T03:11:32.326Z,91.83
2022-09-01T03:12:31.558Z,91.93
2022-09-01T03:13:31.543Z,91.93
2022-09-01T03:14:34.549Z,91.93
2022-09-01T03:15:34.529Z,91.93
2022-09-01T03:16:32.369Z,91.83
2022-09-01T03:17:31.488Z,91.83
2022-09-01T03:18:31.464Z,91.93
2022-09-01T03:19:31.481Z,91.83
2022-09-01T03:20:31.442Z,91.83
2022-09-01T03:21:32.184Z,91.83
2022-09-01T03:22:31.432Z,91.83
2022-09-01T03:23:31.432Z,91.72
2022-09-01T03:24:31.423Z,91.72
2022-09-01T03:25:31.391Z,91.72
2022-09-01T03:26:32.245Z,91.72
2022-09-01T03:27:31.384Z,91.62
2022-09-01T03:28:31.353Z,91.62
2022-09-01T03:29:31.343Z,91.62
2022-09-01T03:30:31.386Z,91.62
2022-09-01T03:31:31.719Z,91.72
2022-09-01T03:32:31.348Z,91.72
2022-09-01T03:33:31.286Z,91.72
2022-09-01T03:34:34.256Z,91.83
2022-09-01T03:35:34.270Z,91.83
2022-09-01T03:36:31.246Z,91.83
2022-09-01T03:37:31.217Z,91.83
2022-09-01T03:38:31.238Z,91.93
2022-09-01T03:39:31.201Z,91.83
2022-09-01T03:40:31.239Z,91.83
2022-09-01T03:41:31.189Z,91.83
2022-09-01T03:42:31.149Z,91.83
2022-09-01T03:43:35.965Z,91.83
2022-09-01T03:44:32.150Z,91.93
2022-09-01T03:45:31.161Z,91.93
2022-09-01T03:46:36.393Z,92.03
2022-09-01T03:47:32.103Z,92.03
2022-09-01T03:48:31.070Z,92.03
2022-09-01T03:49:31.081Z,92.03
2022-09-01T03:50:31.051Z,92.13
2022-09-01T03:51:31.036Z,92.27
2022-09-01T03:52:31.042Z,92.27
2022-09-01T03:53:31.016Z,92.38
2022-09-01T03:54:34.024Z,92.48
2022-09-01T03:55:33.983Z,92.48
2022-09-01T03:56:30.981Z,92.58
2022-09-01T03:57:32.519Z,92.68
2022-09-01T03:58:30.936Z,92.68
2022-09-01T03:59:30.966Z,92.79
2022-09-01T04:00:30.936Z,92.89
2022-09-01T04:01:30.933Z,92.89
2022-09-01T04:02:30.993Z,92.89
2022-09-01T04:03:31.045Z,92.99
2022-09-01T04:04:30.879Z,92.99
2022-09-01T04:05:30.856Z,92.89
2022-09-01T04:06:30.850Z,92.89
2022-09-01T04:07:30.829Z,92.89
2022-09-01T04:08:32.748Z,92.99
2022-09-01T04:09:30.807Z,93.19
2022-09-01T04:10:30.791Z,93.33
2022-09-01T04:11:30.767Z,93.44
2022-09-01T04:12:30.741Z,93.54
2022-09-01T04:13:30.777Z,93.54
2022-09-01T04:14:33.722Z,93.64
2022-09-01T04:15:33.720Z,93.74
2022-09-01T04:16:30.740Z,93.95
2022-09-01T04:17:30.782Z,93.95
2022-09-01T04:18:30.703Z,94.05
2022-09-01T04:19:30.708Z,94.05
2022-09-01T04:20:30.651Z,94.20
2022-09-01T04:21:30.624Z,94.30
2022-09-01T04:22:30.643Z,94.50
2022-09-01T04:23:30.603Z,94.71
2022-09-01T04:24:30.583Z,94.81
2022-09-01T04:25:30.623Z,94.81
2022-09-01T04:26:30.571Z,94.91
2022-09-01T04:27:30.555Z,94.91
2022-09-01T04:28:30.541Z,95.01
2022-09-01T04:29:30.516Z,95.12
2022-09-01T04:30:30.507Z,95.12
2022-09-01T04:31:30.535Z,95.12
2022-09-01T04:32:30.477Z,95.16
2022-09-01T04:33:30.500Z,95.26
2022-09-01T04:34:33.467Z,95.36
2022-09-01T04:35:37.797Z,95.57
2022-09-01T04:36:30.420Z,95.67
2022-09-01T04:37:30.416Z,95.67
2022-09-01T04:38:30.417Z,95.77
2022-09-01T04:39:30.391Z,95.77
2022-09-01T04:40:30.514Z,95.77
2022-09-01T04:41:30.363Z,95.87
2022-09-01T04:42:30.389Z,95.87
2022-09-01T04:43:30.321Z,95.97
2022-09-01T04:44:30.300Z,96.08
2022-09-01T04:45:30.362Z,96.08
2022-09-01T04:46:30.282Z,96.18
2022-09-01T04:47:35.467Z,96.08
2022-09-01T04:48:31.273Z,96.18
2022-09-01T04:49:30.236Z,96.08
2022-09-01T04:50:30.235Z,96.08
2022-09-01T04:51:30.202Z,95.97
2022-09-01T04:52:30.222Z,96.08
2022-09-01T04:53:30.183Z,96.08
2022-09-01T04:54:33.174Z,95.97
2022-09-01T04:55:40.686Z,96.08
2022-09-01T04:56:30.157Z,96.08
2022-09-01T04:57:30.288Z,96.14
2022-09-01T04:58:30.118Z,95.43
2022-09-01T04:59:30.099Z,93.62
2022-09-01T05:00:30.100Z,91.60
2022-09-01T05:01:30.144Z,89.42
2022-09-01T05:02:30.137Z,88.16
2022-09-01T05:03:30.100Z,86.59
2022-09-01T05:04:30.039Z,85.74
2022-09-01T05:05:30.056Z,84.38
2022-09-01T05:06:30.062Z,83.57
2022-09-01T05:07:30.011Z,83.33
2022-09-01T05:08:32.837Z,82.42
2022-09-01T05:09:29.991Z,82.11
2022-09-01T05:10:30.274Z,81.77
2022-09-01T05:11:29.953Z,81.12
2022-09-01T05:12:29.933Z,80.21
2022-09-01T05:13:29.927Z,80.86
2022-09-01T05:14:33.088Z,81.02
2022-09-01T05:15:32.912Z,80.27
2022-09-01T05:16:29.915Z,79.33
2022-09-01T05:17:29.855Z,78.62
2022-09-01T05:18:29.855Z,77.97
2022-09-01T05:19:29.828Z,77.03
2022-09-01T05:20:29.882Z,76.28
2022-09-01T05:21:29.972Z,75.98
2022-09-01T05:22:29.799Z,75.24
2022-09-01T05:23:29.777Z,74.90
2022-09-01T05:24:29.769Z,74.09
2022-09-01T05:25:29.792Z,73.96
2022-09-01T05:26:29.748Z,73.28
2022-09-01T05:27:29.729Z,73.69
2022-09-01T05:28:29.719Z,73.69
2022-09-01T05:29:29.744Z,73.65
2022-09-01T05:30:29.733Z,73.45
2022-09-01T05:31:29.730Z,72.41
2022-09-01T05:32:29.660Z,72.61
2022-09-01T05:33:29.652Z,72.41
2022-09-01T05:34:32.631Z,71.97
2022-09-01T05:35:33.216Z,71.57
2022-09-01T05:36:29.594Z,71.03
2022-09-01T05:37:29.603Z,71.03
2022-09-01T05:38:29.575Z,71.47
2022-09-01T05:39:29.567Z,72.31
2022-09-01T05:40:29.634Z,72.11
2022-09-01T05:41:29.606Z,71.77
2022-09-01T05:42:29.527Z,71.06
2022-09-01T05:43:29.517Z,70.50
2022-09-01T05:44:29.505Z,70.06
2022-09-01T05:45:36.462Z,68.82
2022-09-01T05:46:30.699Z,68.51
2022-09-01T05:47:29.473Z,68.62
2022-09-01T05:48:29.447Z,68.21
2022-09-01T05:49:29.435Z,69.05
2022-09-01T05:50:29.417Z,70.26
2022-09-01T05:51:45.808Z,71.06
2022-09-01T05:52:30.408Z,71.91
2022-09-01T05:53:29.379Z,72.75
2022-09-01T05:54:32.370Z,73.49
2022-09-01T05:55:32.406Z,74.63
2022-09-01T05:56:29.340Z,75.48
2022-09-01T05:57:34.569Z,76.56
2022-09-01T05:59:22.471Z,78.01
2022-09-01T05:59:30.311Z,78.66
2022-09-01T06:00:29.284Z,79.91
2022-09-01T06:01:29.351Z,81.06
2022-09-01T06:02:29.386Z,81.67
2022-09-01T06:03:29.469Z,81.67
2022-09-01T06:04:29.233Z,81.97
2022-09-01T06:05:29.215Z,82.52
2022-09-01T06:06:40.053Z,83.12
2022-09-01T06:07:30.186Z,83.33
2022-09-01T06:08:29.164Z,83.43
2022-09-01T06:09:29.206Z,83.33
2022-09-01T06:10:29.139Z,83.43
2022-09-01T06:11:29.126Z,83.63
2022-09-01T06:12:29.122Z,83.77
2022-09-01T06:13:29.103Z,84.18
2022-09-01T06:14:32.126Z,84.48
2022-09-01T06:15:32.128Z,84.58
2022-09-01T06:16:29.104Z,84.72
2022-09-01T06:17:29.082Z,85.13
2022-09-01T06:18:29.039Z,85.58
2022-09-01T06:19:30.707Z,85.98
2022-09-01T06:20:29.049Z,86.19
2022-09-01T06:21:29.000Z,86.29
2022-09-01T06:22:28.982Z,86.25
2022-09-01T06:23:28.991Z,86.05
2022-09-01T06:24:28.961Z,85.84
2022-09-01T06:25:28.971Z,85.53
2022-09-01T06:26:28.940Z,85.39
2022-09-01T06:27:28.923Z,85.39
2022-09-01T06:28:28.912Z,84.99
2022-09-01T06:29:28.896Z,84.99
2022-09-01T06:30:28.942Z,84.58
2022-09-01T06:31:28.906Z,84.58
2022-09-01T06:32:28.847Z,84.48
2022-09-01T06:33:28.840Z,84.44
2022-09-01T06:34:31.815Z,84.08
2022-09-01T06:35:31.850Z,84.28
2022-09-01T06:36:33.147Z,84.48
2022-09-01T06:37:29.785Z,84.48
2022-09-01T06:38:28.795Z,84.34
2022-09-01T06:39:28.758Z,84.24
2022-09-01T06:40:28.787Z,84.24
2022-09-01T06:41:28.759Z,84.04
2022-09-01T06:42:28.718Z,83.69
2022-09-01T06:43:28.699Z,83.59
2022-09-01T06:44:28.681Z,83.59
2022-09-01T06:45:28.671Z,83.39
2022-09-01T06:46:28.752Z,83.18
2022-09-01T06:47:28.656Z,82.98
2022-09-01T06:48:28.631Z,82.98
2022-09-01T06:49:28.615Z,83.29
2022-09-01T06:51:29.596Z,83.15
2022-09-01T06:53:31.484Z,83.04
2022-09-01T06:53:34.342Z,82.75
2022-09-01T06:54:32.555Z,82.44
2022-09-01T06:55:31.706Z,82.60
2022-09-01T06:56:31.896Z,82.40
2022-09-01T06:58:29.495Z,82.10
2022-09-01T06:59:32.597Z,82.10
2022-09-01T07:00:29.508Z,82.20
2022-09-01T07:01:29.049Z,81.90
2022-09-01T07:02:28.448Z,81.29
2022-09-01T07:03:28.486Z,81.49
2022-09-01T07:04:28.416Z,81.76
2022-09-01T07:08:29.368Z,80.91
2022-09-01T07:10:29.322Z,80.26
2022-09-01T07:12:29.470Z,79.66
2022-09-01T07:13:28.285Z,78.85
2022-09-01T07:14:31.269Z,78.75
2022-09-01T07:16:31.881Z,79.05
2022-09-01T07:16:33.417Z,79.21
2022-09-01T07:17:29.224Z,79.32
2022-09-01T07:18:28.478Z,79.21
2022-09-01T07:19:48.330Z,78.91
2022-09-01T07:20:29.275Z,78.50
2022-09-01T07:22:06.739Z,77.97
2022-09-01T07:23:02.610Z,78.06
2022-09-01T07:23:46.310Z,77.46
2022-09-01T07:24:31.777Z,77.66
2022-09-01T07:26:29.126Z,77.32
2022-09-01T07:27:35.631Z,76.51
2022-09-01T07:28:36.129Z,76.72
2022-09-01T07:29:29.077Z,76.21
2022-09-01T07:30:28.047Z,75.91
2022-09-01T07:32:47.297Z,75.71
2022-09-01T07:33:44.554Z,75.98
2022-09-01T07:34:39.647Z,75.98
2022-09-01T07:35:32.011Z,75.98
2022-09-01T07:36:28.051Z,75.74
2022-09-01T07:42:31.191Z,80.87
2022-09-01T07:42:31.579Z,77.26
2022-09-01T07:43:31.166Z,71.67
2022-09-01T07:44:27.925Z,71.87
2022-09-01T07:45:28.672Z,71.67
2022-09-01T07:46:43.413Z,71.37
2022-09-01T07:49:30.108Z,71.67
2022-09-01T07:51:35.097Z,71.57
2022-09-01T07:51:37.187Z,71.17
2022-09-01T07:52:28.761Z,68.24
2022-09-01T07:53:27.760Z,68.04
2022-09-01T07:54:30.741Z,68.14
2022-09-01T07:55:30.763Z,67.91
2022-09-01T07:56:27.711Z,68.11
2022-09-01T07:57:27.703Z,66.56
2022-09-01T07:58:27.674Z,65.16
2022-09-01T07:59:27.666Z,64.02
2022-09-01T08:00:31.393Z,63.82
2022-09-01T08:01:27.692Z,64.12
2022-09-01T08:02:27.644Z,64.19
2022-09-01T08:03:27.614Z,63.59
2022-09-01T08:04:27.594Z,63.68
2022-09-01T08:05:27.579Z,63.68
2022-09-01T08:06:27.985Z,63.68
2022-09-01T08:07:27.563Z,64.29
2022-09-01T08:08:29.542Z,63.85
2022-09-01T08:09:38.025Z,63.25
2022-09-01T08:10:28.516Z,63.35
2022-09-01T08:11:51.535Z,63.25
2022-09-01T08:12:29.452Z,63.35
2022-09-01T08:13:27.479Z,63.05
2022-09-01T08:14:33.691Z,63.45
2022-09-01T08:16:39.259Z,63.12
2022-09-01T08:17:51.145Z,62.72
2022-09-01T08:18:28.436Z,63.42
2022-09-01T08:19:27.382Z,63.32
2022-09-01T08:20:27.372Z,63.93
2022-09-01T08:21:27.360Z,63.73
2022-09-01T08:22:27.402Z,63.12
2022-09-01T08:23:27.473Z,63.62
2022-09-01T08:24:27.553Z,63.70
2022-09-01T08:25:27.374Z,63.49
2022-09-01T08:26:27.295Z,63.19
2022-09-01T08:27:28.255Z,63.09
2022-09-01T08:28:27.484Z,62.59
2022-09-01T08:29:27.255Z,62.79
2022-09-01T08:30:27.366Z,62.79
2022-09-01T08:31:30.744Z,62.59
2022-09-01T08:32:28.197Z,62.99
2022-09-01T08:33:27.198Z,63.09
2022-09-01T08:34:30.449Z,63.29
2022-09-01T08:35:30.176Z,62.96
2022-09-01T08:36:27.460Z,61.86
2022-09-01T08:37:27.910Z,60.96
2022-09-01T08:38:27.149Z,61.15
2022-09-01T08:39:27.109Z,60.55
2022-09-01T08:40:27.293Z,60.65
2022-09-01T08:41:28.819Z,60.35
2022-09-01T08:42:32.813Z,59.14
2022-09-01T08:43:27.082Z,58.84
2022-09-01T08:44:27.092Z,58.64
2022-09-01T08:45:27.381Z,58.92
2022-09-01T08:46:27.163Z,58.81
2022-09-01T08:47:32.403Z,58.51
2022-09-01T08:49:28.476Z,58.75
2022-09-01T08:50:26.962Z,59.12
2022-09-01T08:51:26.944Z,58.31
2022-09-01T08:52:26.934Z,58.31
2022-09-01T08:53:26.926Z,58.01
2022-09-01T08:54:31.859Z,56.01
2022-09-01T08:55:29.918Z,55.20
2022-09-01T08:56:26.889Z,56.08
2022-09-01T08:57:27.636Z,55.78
2022-09-01T08:58:26.898Z,54.58
2022-09-01T08:59:26.846Z,54.88
2022-09-01T09:00:26.856Z,55.28
2022-09-01T09:01:26.846Z,55.28
2022-09-01T09:02:27.597Z,55.88
2022-09-01T09:03:26.877Z,55.47
2022-09-01T09:04:26.779Z,56.28
2022-09-01T09:05:26.811Z,55.08
2022-09-01T09:06:26.751Z,53.67
2022-09-01T09:07:27.503Z,55.38
2022-09-01T09:08:33.290Z,55.88
2022-09-01T09:09:34.800Z,55.98
2022-09-01T09:10:27.722Z,55.78
2022-09-01T09:11:26.828Z,55.08
2022-09-01T09:12:27.890Z,55.75
2022-09-01T09:13:26.676Z,54.25
2022-09-01T09:14:29.644Z,52.97
2022-09-01T09:15:29.728Z,52.67
2022-09-01T09:16:26.678Z,52.17
2022-09-01T09:17:27.367Z,51.94
2022-09-01T09:18:39.061Z,52.44
2022-09-01T09:19:27.606Z,51.94
2022-09-01T09:20:26.597Z,51.82
2022-09-01T09:21:26.608Z,52.62
2022-09-01T09:22:26.606Z,53.72
2022-09-01T09:23:26.571Z,53.72
2022-09-01T09:24:26.522Z,53.59
2022-09-01T09:25:26.509Z,54.20
2022-09-01T09:26:26.675Z,53.87
2022-09-01T09:27:27.241Z,53.67
2022-09-01T09:28:26.468Z,53.57
2022-09-01T09:29:26.471Z,54.17
2022-09-01T09:30:26.648Z,54.07
2022-09-01T09:31:26.497Z,53.47
2022-09-01T09:32:44.239Z,54.27
2022-09-01T09:33:53.850Z,52.87
2022-09-01T09:34:30.441Z,52.97
2022-09-01T09:35:29.393Z,52.47
2022-09-01T09:36:26.352Z,52.80
2022-09-01T09:37:27.142Z,53.50
2022-09-01T09:38:26.345Z,53.30
2022-09-01T09:39:26.396Z,53.50
2022-09-01T09:40:26.476Z,52.80
2022-09-01T09:41:27.407Z,53.19
2022-09-01T09:42:31.204Z,52.62
2022-09-01T09:43:28.195Z,51.89
2022-09-01T09:44:26.246Z,52.32
2022-09-01T09:45:26.447Z,52.82
2022-09-01T09:46:26.264Z,52.42
2022-09-01T09:47:42.733Z,52.82
2022-09-01T09:48:27.210Z,53.12
2022-09-01T09:49:36.123Z,52.32
2022-09-01T09:50:27.388Z,52.22
2022-09-01T09:51:28.862Z,52.12
2022-09-01T09:52:26.249Z,52.42
2022-09-01T09:53:26.135Z,52.32
2022-09-01T09:54:29.112Z,51.92
2022-09-01T09:55:29.194Z,51.49
2022-09-01T09:56:26.092Z,50.69
2022-09-01T09:57:26.072Z,51.29
2022-09-01T09:58:26.073Z,49.89
2022-09-01T09:59:46.251Z,49.66
2022-09-01T10:00:27.035Z,49.96
2022-09-01T10:01:26.118Z,50.16
2022-09-01T10:02:27.860Z,50.46
2022-09-01T10:03:29.109Z,50.44
2022-09-01T10:04:26.005Z,49.82
2022-09-01T10:05:25.976Z,49.41
2022-09-01T10:06:26.117Z,49.41
2022-09-01T10:07:25.936Z,48.99
2022-09-01T10:08:25.916Z,48.11
2022-09-01T10:09:25.917Z,47.81
2022-09-01T10:10:25.901Z,48.52
2022-09-01T10:11:28.978Z,48.22
2022-09-01T10:12:26.922Z,48.99
2022-09-01T10:13:27.447Z,49.09
2022-09-01T10:14:52.583Z,48.87
2022-09-01T10:15:30.164Z,48.47
2022-09-01T10:16:27.652Z,49.27
2022-09-01T10:17:26.087Z,49.55
2022-09-01T10:18:29.517Z,49.05
2022-09-01T10:19:25.763Z,48.14
2022-09-01T10:20:25.790Z,47.85
2022-09-01T10:21:25.740Z,48.65
2022-09-01T10:22:25.752Z,47.33
2022-09-01T10:23:27.410Z,47.03
2022-09-01T10:24:27.405Z,47.63
2022-09-01T10:25:25.706Z,47.03
2022-09-01T10:26:25.678Z,46.61
2022-09-01T10:27:25.814Z,46.53
2022-09-01T10:28:25.869Z,46.62
2022-09-01T10:29:25.637Z,46.62
2022-09-01T10:30:25.646Z,46.83
2022-09-01T10:31:32.078Z,47.92
2022-09-01T10:32:37.007Z,47.13
2022-09-01T10:33:26.623Z,46.62
2022-09-01T10:34:28.569Z,47.03
2022-09-01T10:35:28.560Z,46.85
2022-09-01T10:36:25.539Z,47.45
2022-09-01T10:37:27.693Z,46.92
2022-09-01T10:38:25.542Z,46.97
2022-09-01T10:39:30.526Z,46.97
2022-09-01T10:40:31.111Z,47.67
2022-09-01T10:41:26.536Z,47.07
2022-09-01T10:42:25.465Z,47.19
2022-09-01T10:43:25.523Z,47.27
2022-09-01T10:44:25.433Z,46.87
2022-09-01T10:45:26.621Z,46.95
2022-09-01T10:46:26.066Z,46.45
2022-09-01T10:47:25.497Z,47.53
2022-09-01T10:48:34.062Z,47.71
2022-09-01T10:49:27.785Z,46.31
2022-09-01T10:50:25.337Z,45.51
2022-09-01T10:51:28.901Z,46.35
2022-09-01T10:52:28.707Z,46.43
2022-09-01T10:53:26.881Z,46.23
2022-09-01T10:54:28.350Z,46.62
2022-09-01T10:55:28.289Z,46.13
2022-09-01T10:56:35.474Z,45.90
2022-09-01T10:57:28.000Z,45.83
2022-09-01T10:59:38.682Z,46.68
2022-09-01T11:00:41.888Z,46.06
2022-09-01T11:01:47.876Z,45.94
2022-09-01T11:02:28.049Z,44.57
2022-09-01T11:03:32.833Z,45.18
2022-09-01T11:04:26.271Z,45.10
2022-09-01T11:05:25.979Z,45.81
2022-09-01T11:06:33.279Z,44.71
2022-09-01T11:07:44.456Z,44.79
2022-09-01T11:08:26.270Z,44.51
2022-09-01T11:09:25.104Z,45.01
2022-09-01T11:10:32.093Z,45.10
2022-09-01T11:11:26.137Z,44.95
2022-09-01T11:12:29.828Z,45.35
2022-09-01T11:13:26.067Z,45.63
2022-09-01T11:14:28.043Z,45.13
2022-09-01T11:15:28.031Z,45.10
2022-09-01T11:17:26.064Z,45.43
2022-09-01T11:18:25.012Z,45.45
2022-09-01T11:19:24.973Z,45.87
2022-09-01T11:20:24.984Z,46.05
2022-09-01T11:21:25.784Z,45.55
2022-09-01T11:22:26.417Z,45.65
2022-09-01T11:23:25.033Z,45.57
2022-09-01T11:24:25.577Z,45.79
2022-09-01T11:25:24.881Z,46.09
2022-09-01T11:26:24.902Z,46.77
2022-09-01T11:27:25.046Z,45.75
2022-09-01T11:28:24.848Z,44.83
2022-09-01T11:29:24.840Z,44.01
2022-09-01T11:30:24.849Z,43.81
2022-09-01T11:31:24.802Z,43.39
2022-09-01T11:32:24.817Z,43.29
2022-09-01T11:33:24.919Z,44.29
2022-09-01T11:34:27.776Z,43.47
2022-09-01T11:35:27.751Z,44.62
2022-09-01T11:36:25.403Z,42.41
2022-09-01T11:37:27.588Z,42.41
2022-09-01T11:38:24.743Z,41.42
2022-09-01T11:39:24.777Z,42.01
2022-09-01T11:40:24.734Z,42.01
2022-09-01T11:41:24.671Z,42.11
2022-09-01T11:42:24.673Z,41.74
2022-09-01T11:43:24.624Z,42.23
2022-09-01T11:44:24.644Z,42.15
2022-09-01T11:45:24.636Z,43.27
2022-09-01T11:46:24.608Z,43.19
2022-09-01T11:47:24.594Z,44.09
2022-09-01T11:48:24.583Z,43.27
2022-09-01T11:49:24.597Z,43.67
2022-09-01T11:50:24.567Z,43.77
2022-09-01T11:51:24.707Z,43.57
2022-09-01T11:52:24.550Z,43.39
2022-09-01T11:53:24.560Z,44.69
2022-09-01T11:54:27.510Z,44.09
2022-09-01T11:55:27.524Z,43.71
2022-09-01T11:56:24.471Z,44.41
2022-09-01T11:57:24.561Z,44.51
2022-09-01T11:58:24.491Z,44.91
2022-09-01T11:59:24.432Z,44.96
2022-09-01T12:00:24.429Z,43.75
2022-09-01T12:01:24.560Z,42.75
2022-09-01T12:02:24.548Z,42.87
2022-09-01T12:03:24.888Z,42.87
2022-09-01T12:04:24.415Z,43.69
2022-09-01T12:05:24.356Z,43.71
2022-09-01T12:06:24.341Z,44.33
2022-09-01T12:07:24.345Z,45.05
2022-09-01T12:08:24.456Z,45.57
2022-09-01T12:09:24.477Z,45.39
2022-09-01T12:10:24.296Z,45.69
2022-09-01T12:11:24.300Z,45.50
2022-09-01T12:12:24.328Z,44.87
2022-09-01T12:13:24.254Z,45.45
2022-09-01T12:14:38.925Z,44.35
2022-09-01T12:15:28.278Z,45.07
2022-09-01T12:16:24.354Z,44.57
2022-09-01T12:17:24.198Z,45.39
2022-09-01T12:18:24.213Z,45.79
2022-09-01T12:19:24.242Z,46.09
2022-09-01T12:20:28.650Z,46.39
2022-09-01T12:21:25.155Z,46.51
2022-09-01T12:22:24.177Z,46.42
2022-09-01T12:23:24.136Z,46.81
2022-09-01T12:24:24.088Z,46.69
2022-09-01T12:25:24.175Z,46.07
2022-09-01T12:26:24.129Z,45.77
2022-09-01T12:27:24.155Z,45.89
2022-09-01T12:28:24.198Z,46.09
2022-09-01T12:29:24.426Z,45.87
2022-09-01T12:30:24.039Z,45.75
2022-09-01T12:31:24.083Z,45.75
2022-09-01T12:32:24.012Z,45.55
2022-09-01T12:33:24.414Z,45.45
2022-09-01T12:34:27.121Z,45.45
2022-09-01T12:35:26.952Z,45.43
2022-09-01T12:36:23.943Z,45.13
2022-09-01T12:37:23.924Z,44.41
2022-09-01T12:38:23.974Z,44.01
2022-09-01T12:39:23.892Z,44.41
2022-09-01T12:40:23.970Z,44.29
2022-09-01T12:41:23.867Z,44.46
2022-09-01T12:42:23.854Z,44.27
2022-09-01T12:43:23.887Z,43.39
2022-09-01T12:44:23.818Z,43.89
2022-09-01T12:45:23.813Z,44.29
2022-09-01T12:46:24.028Z,43.97
2022-09-01T12:47:23.817Z,43.47
2022-09-01T12:48:23.817Z,43.67
2022-09-01T12:49:23.780Z,42.85
2022-09-01T12:50:23.758Z,43.35
2022-09-01T12:51:26.587Z,42.63
2022-09-01T12:52:23.750Z,43.11
2022-09-01T12:53:23.829Z,41.89
2022-09-01T12:54:26.694Z,41.79
2022-09-01T12:56:24.864Z,41.20
2022-09-01T12:57:23.652Z,41.30
2022-09-01T12:58:23.666Z,41.39
2022-09-01T12:59:26.215Z,41.17
2022-09-01T13:00:24.622Z,41.08
2022-09-01T13:01:23.740Z,40.56
2022-09-01T13:02:23.685Z,40.56
2022-09-01T13:03:23.881Z,39.97
2022-09-01T13:04:23.586Z,40.56
2022-09-01T13:05:28.477Z,40.56
2022-09-01T13:06:24.539Z,40.26
2022-09-01T13:07:23.584Z,40.86
2022-09-01T13:08:23.518Z,41.46
2022-09-01T13:09:23.486Z,40.86
2022-09-01T13:10:23.498Z,40.90
2022-09-01T13:11:23.514Z,41.61
2022-09-01T13:12:23.460Z,42.33